This is the latest recevied weather packets stored in our database for station/object NW1E. If no packets are shown the sender has not sent any weather packets the latest 10 day(s).
| Time | Temp. | Humidity | Pressure | Rain* | Wind** | Luminosity | Snow |
|---|---|---|---|---|---|---|---|
| 1777171563 | 22.78° C | 89% | 1011.6 hPa | 0 mm | - | 0 W/m² | - |
| 1777169462 | 22.78° C | 87% | 1011.5 hPa | 0 mm | - | 0 W/m² | - |
| 1777169164 | 23.33° C | 87% | 1011.5 hPa | 0 mm | - | 0 W/m² | - |
| 1777167963 | 23.33° C | 87% | 1011.7 hPa | 0 mm | - | 0 W/m² | - |
| 1777166466 | 23.89° C | 83% | 1011.3 hPa | 0 mm | - | 0 W/m² | - |
| 1777165858 | 24.44° C | 83% | 1011.1 hPa | 0 mm | - | 0 W/m² | - |
| 1777165536 | 24.44° C | 83% | 1011 hPa | 0 mm | - | 0 W/m² | - |
| 1777165428 | 24.44° C | 82% | 1010.9 hPa | 0 mm | - | 0 W/m² | - |
| 1777164335 | 24.44° C | 80% | 1010.6 hPa | 0 mm | - | 0 W/m² | - |
| 1777162835 | 25° C | 77% | 1009.9 hPa | 0 mm | - | 0 W/m² | - |
| 1777162715 | 25° C | 77% | 1009.4 hPa | 0 mm | - | 0 W/m² | - |
| 1777157712 | 27.22° C | 69% | 1010.1 hPa | 0 mm | - | 35 W/m² | - |
| 1777156807 | 27.78° C | 67% | 1010.4 hPa | 0 mm | - | 42 W/m² | - |
| 1777152003 | 29.44° C | 59% | 1010.2 hPa | 0 mm | - | 454 W/m² | - |
| 1777149303 | 29.44° C | 63% | 1010.4 hPa | 0 mm | - | 804 W/m² | - |
| 1777149002 | 29.44° C | 63% | 1010.3 hPa | 0 mm | - | 709 W/m² | - |
| 1777148404 | 30° C | 63% | 1010.4 hPa | 0 mm | - | 598 W/m² | - |
| 1777148293 | 30° C | 63% | 1010.5 hPa | 0 mm | - | 747 W/m² | - |
| 1777147204 | 29.44° C | 64% | 1010.6 hPa | 0 mm | - | 679 W/m² | - |
| 1777145460 | 30.56° C | 63% | 1010.7 hPa | 0 mm | - | 781 W/m² | - |
| 1777144198 | 30° C | 64% | 1011.1 hPa | 0 mm | - | 862 W/m² | - |
| 1777142398 | 30.56° C | 62% | 1011.2 hPa | 0 mm | - | 911 W/m² | - |
| 1777141197 | 30.56° C | 63% | 1011.2 hPa | 0 mm | - | 941 W/m² | - |
| 1777137898 | 30.56° C | 62% | 1011.3 hPa | 0 mm | - | 1041 W/m² | - |
| 1777136395 | 30.56° C | 54% | 1011.1 hPa | 0 mm | - | 336 W/m² | - |
* Rain latest hour (hover to see other rain measurements)
** Current wind speed in m/s (hover to see current wind gust speed)